sensor_id;sensor_type;location;lat;lon;timestamp;P1;durP1;ratioP1;P2;durP2;ratioP2
79414;SDS011;68864;44.972;19.612;2023-08-24T00:01:50;9.65;;;6.35;;
79414;SDS011;68864;44.972;19.612;2023-08-24T00:06:43;14.65;;;7.95;;
79414;SDS011;68864;44.972;19.612;2023-08-24T00:09:10;12.60;;;7.68;;
79414;SDS011;68864;44.972;19.612;2023-08-24T00:11:37;13.55;;;7.05;;
79414;SDS011;68864;44.972;19.612;2023-08-24T00:14:04;8.48;;;6.13;;
79414;SDS011;68864;44.972;19.612;2023-08-24T00:16:32;10.02;;;6.95;;
79414;SDS011;68864;44.972;19.612;2023-08-24T00:18:59;14.45;;;8.35;;
79414;SDS011;68864;44.972;19.612;2023-08-24T00:21:26;10.27;;;6.15;;
79414;SDS011;68864;44.972;19.612;2023-08-24T00:23:54;9.63;;;7.00;;
79414;SDS011;68864;44.972;19.612;2023-08-24T00:26:21;12.13;;;7.70;;
79414;SDS011;68864;44.972;19.612;2023-08-24T00:28:48;11.23;;;7.10;;
79414;SDS011;68864;44.972;19.612;2023-08-24T00:31:15;14.32;;;6.68;;
79414;SDS011;68864;44.972;19.612;2023-08-24T00:33:43;9.93;;;6.50;;
79414;SDS011;68864;44.972;19.612;2023-08-24T00:36:10;9.32;;;5.97;;
79414;SDS011;68864;44.972;19.612;2023-08-24T00:38:37;8.85;;;6.20;;
79414;SDS011;68864;44.972;19.612;2023-08-24T00:41:04;12.32;;;6.72;;
79414;SDS011;68864;44.972;19.612;2023-08-24T00:43:31;8.23;;;5.13;;
79414;SDS011;68864;44.972;19.612;2023-08-24T00:45:59;9.23;;;5.57;;
79414;SDS011;68864;44.972;19.612;2023-08-24T00:48:27;9.27;;;5.97;;
79414;SDS011;68864;44.972;19.612;2023-08-24T00:50:56;9.25;;;5.35;;
79414;SDS011;68864;44.972;19.612;2023-08-24T00:53:25;18.42;;;7.88;;
79414;SDS011;68864;44.972;19.612;2023-08-24T00:55:54;10.73;;;6.88;;
79414;SDS011;68864;44.972;19.612;2023-08-24T00:58:21;8.32;;;5.85;;
79414;SDS011;68864;44.972;19.612;2023-08-24T01:00:49;7.10;;;4.70;;
79414;SDS011;68864;44.972;19.612;2023-08-24T01:03:18;10.23;;;5.55;;
79414;SDS011;68864;44.972;19.612;2023-08-24T01:05:45;10.73;;;5.80;;
79414;SDS011;68864;44.972;19.612;2023-08-24T01:10:40;12.75;;;7.78;;
79414;SDS011;68864;44.972;19.612;2023-08-24T01:13:15;12.65;;;6.45;;
79414;SDS011;68864;44.972;19.612;2023-08-24T01:15:51;10.77;;;7.03;;
79414;SDS011;68864;44.972;19.612;2023-08-24T01:18:25;11.18;;;6.38;;
79414;SDS011;68864;44.972;19.612;2023-08-24T01:20:53;11.63;;;7.32;;
79414;SDS011;68864;44.972;19.612;2023-08-24T01:23:33;14.32;;;7.78;;
79414;SDS011;68864;44.972;19.612;2023-08-24T01:26:07;10.98;;;5.93;;
79414;SDS011;68864;44.972;19.612;2023-08-24T01:28:36;9.75;;;6.82;;
79414;SDS011;68864;44.972;19.612;2023-08-24T01:31:04;10.38;;;7.28;;
79414;SDS011;68864;44.972;19.612;2023-08-24T01:33:32;9.05;;;6.20;;
79414;SDS011;68864;44.972;19.612;2023-08-24T01:35:59;9.40;;;5.13;;
79414;SDS011;68864;44.972;19.612;2023-08-24T01:38:27;10.60;;;5.07;;
79414;SDS011;68864;44.972;19.612;2023-08-24T01:40:55;9.23;;;6.72;;
79414;SDS011;68864;44.972;19.612;2023-08-24T01:43:30;12.73;;;7.10;;
79414;SDS011;68864;44.972;19.612;2023-08-24T01:46:01;9.20;;;5.35;;
79414;SDS011;68864;44.972;19.612;2023-08-24T01:48:30;8.77;;;5.38;;
79414;SDS011;68864;44.972;19.612;2023-08-24T01:50:58;8.10;;;5.22;;
79414;SDS011;68864;44.972;19.612;2023-08-24T01:53:26;10.55;;;6.10;;
79414;SDS011;68864;44.972;19.612;2023-08-24T01:55:54;8.05;;;5.50;;
79414;SDS011;68864;44.972;19.612;2023-08-24T01:58:20;9.07;;;7.55;;
79414;SDS011;68864;44.972;19.612;2023-08-24T02:00:49;8.80;;;5.97;;
79414;SDS011;68864;44.972;19.612;2023-08-24T02:03:15;8.35;;;4.97;;
79414;SDS011;68864;44.972;19.612;2023-08-24T02:05:42;8.18;;;5.65;;
79414;SDS011;68864;44.972;19.612;2023-08-24T02:08:09;10.95;;;6.75;;
79414;SDS011;68864;44.972;19.612;2023-08-24T02:13:03;11.32;;;6.10;;
79414;SDS011;68864;44.972;19.612;2023-08-24T02:15:29;10.55;;;7.05;;
79414;SDS011;68864;44.972;19.612;2023-08-24T02:17:57;8.77;;;4.93;;
79414;SDS011;68864;44.972;19.612;2023-08-24T02:20:24;8.40;;;4.97;;
79414;SDS011;68864;44.972;19.612;2023-08-24T02:22:51;9.15;;;6.93;;
79414;SDS011;68864;44.972;19.612;2023-08-24T02:25:18;13.15;;;6.18;;
79414;SDS011;68864;44.972;19.612;2023-08-24T02:30:12;11.05;;;5.75;;
79414;SDS011;68864;44.972;19.612;2023-08-24T02:32:39;8.20;;;5.43;;
79414;SDS011;68864;44.972;19.612;2023-08-24T02:35:08;9.02;;;5.75;;
79414;SDS011;68864;44.972;19.612;2023-08-24T02:37:35;10.27;;;7.47;;
79414;SDS011;68864;44.972;19.612;2023-08-24T02:42:30;7.05;;;4.82;;
79414;SDS011;68864;44.972;19.612;2023-08-24T02:44:57;8.65;;;5.18;;
79414;SDS011;68864;44.972;19.612;2023-08-24T02:47:23;7.47;;;5.20;;
79414;SDS011;68864;44.972;19.612;2023-08-24T02:49:50;11.15;;;6.70;;
79414;SDS011;68864;44.972;19.612;2023-08-24T02:52:19;11.90;;;7.07;;
79414;SDS011;68864;44.972;19.612;2023-08-24T02:54:46;10.18;;;7.22;;
79414;SDS011;68864;44.972;19.612;2023-08-24T02:59:39;7.10;;;4.22;;
79414;SDS011;68864;44.972;19.612;2023-08-24T03:02:08;7.50;;;4.88;;
79414;SDS011;68864;44.972;19.612;2023-08-24T03:04:35;10.60;;;6.63;;
79414;SDS011;68864;44.972;19.612;2023-08-24T03:07:02;11.15;;;5.40;;
79414;SDS011;68864;44.972;19.612;2023-08-24T03:09:33;9.35;;;6.75;;
79414;SDS011;68864;44.972;19.612;2023-08-24T03:12:00;8.25;;;5.45;;
79414;SDS011;68864;44.972;19.612;2023-08-24T03:14:27;7.95;;;5.47;;
79414;SDS011;68864;44.972;19.612;2023-08-24T03:16:54;9.95;;;7.53;;
79414;SDS011;68864;44.972;19.612;2023-08-24T03:19:21;9.45;;;5.22;;
79414;SDS011;68864;44.972;19.612;2023-08-24T03:24:14;10.07;;;4.50;;
79414;SDS011;68864;44.972;19.612;2023-08-24T03:26:42;10.50;;;6.07;;
79414;SDS011;68864;44.972;19.612;2023-08-24T03:29:09;13.55;;;7.78;;
79414;SDS011;68864;44.972;19.612;2023-08-24T03:34:02;6.78;;;5.00;;
79414;SDS011;68864;44.972;19.612;2023-08-24T03:36:29;7.72;;;6.35;;
79414;SDS011;68864;44.972;19.612;2023-08-24T03:38:56;10.20;;;6.90;;
79414;SDS011;68864;44.972;19.612;2023-08-24T03:43:51;8.55;;;6.18;;
79414;SDS011;68864;44.972;19.612;2023-08-24T03:46:18;7.75;;;5.53;;
79414;SDS011;68864;44.972;19.612;2023-08-24T03:48:45;8.15;;;4.78;;
79414;SDS011;68864;44.972;19.612;2023-08-24T03:53:38;11.18;;;7.78;;
79414;SDS011;68864;44.972;19.612;2023-08-24T03:58:31;10.57;;;5.93;;
79414;SDS011;68864;44.972;19.612;2023-08-24T04:03:26;17.10;;;7.18;;
79414;SDS011;68864;44.972;19.612;2023-08-24T04:08:19;9.15;;;5.53;;
79414;SDS011;68864;44.972;19.612;2023-08-24T04:10:46;10.18;;;5.90;;
79414;SDS011;68864;44.972;19.612;2023-08-24T04:15:39;10.55;;;6.18;;
79414;SDS011;68864;44.972;19.612;2023-08-24T04:20:34;16.58;;;7.45;;
79414;SDS011;68864;44.972;19.612;2023-08-24T04:25:28;19.88;;;11.57;;
79414;SDS011;68864;44.972;19.612;2023-08-24T04:27:55;16.45;;;8.82;;
79414;SDS011;68864;44.972;19.612;2023-08-24T04:30:22;10.38;;;7.05;;
79414;SDS011;68864;44.972;19.612;2023-08-24T04:35:17;13.55;;;8.75;;
79414;SDS011;68864;44.972;19.612;2023-08-24T04:37:44;14.15;;;9.80;;
79414;SDS011;68864;44.972;19.612;2023-08-24T04:42:37;13.77;;;7.88;;
79414;SDS011;68864;44.972;19.612;2023-08-24T04:47:31;14.57;;;8.23;;
79414;SDS011;68864;44.972;19.612;2023-08-24T04:52:26;12.15;;;6.63;;
79414;SDS011;68864;44.972;19.612;2023-08-24T04:54:53;13.73;;;8.35;;
79414;SDS011;68864;44.972;19.612;2023-08-24T04:59:46;12.18;;;6.05;;
79414;SDS011;68864;44.972;19.612;2023-08-24T05:04:40;11.20;;;7.88;;
79414;SDS011;68864;44.972;19.612;2023-08-24T05:09:34;15.60;;;10.35;;
79414;SDS011;68864;44.972;19.612;2023-08-24T05:12:01;11.10;;;8.23;;
79414;SDS011;68864;44.972;19.612;2023-08-24T05:14:28;11.98;;;8.48;;
79414;SDS011;68864;44.972;19.612;2023-08-24T05:16:55;12.63;;;9.23;;
79414;SDS011;68864;44.972;19.612;2023-08-24T05:21:48;9.27;;;5.63;;
79414;SDS011;68864;44.972;19.612;2023-08-24T05:26:43;10.32;;;6.88;;
79414;SDS011;68864;44.972;19.612;2023-08-24T05:29:10;10.88;;;6.80;;
79414;SDS011;68864;44.972;19.612;2023-08-24T05:34:03;14.65;;;8.95;;
79414;SDS011;68864;44.972;19.612;2023-08-24T05:36:30;14.32;;;10.50;;
79414;SDS011;68864;44.972;19.612;2023-08-24T05:38:57;14.55;;;8.23;;
79414;SDS011;68864;44.972;19.612;2023-08-24T05:43:52;15.23;;;7.85;;
79414;SDS011;68864;44.972;19.612;2023-08-24T05:46:19;28.70;;;19.73;;
79414;SDS011;68864;44.972;19.612;2023-08-24T05:48:45;27.63;;;16.05;;
79414;SDS011;68864;44.972;19.612;2023-08-24T05:53:39;13.95;;;9.43;;
79414;SDS011;68864;44.972;19.612;2023-08-24T05:56:06;14.20;;;8.70;;
79414;SDS011;68864;44.972;19.612;2023-08-24T05:58:33;10.65;;;7.80;;
79414;SDS011;68864;44.972;19.612;2023-08-24T06:01:01;9.82;;;7.63;;
79414;SDS011;68864;44.972;19.612;2023-08-24T06:03:28;14.07;;;9.00;;
79414;SDS011;68864;44.972;19.612;2023-08-24T06:06:00;12.43;;;7.35;;
79414;SDS011;68864;44.972;19.612;2023-08-24T06:08:27;11.95;;;7.20;;
79414;SDS011;68864;44.972;19.612;2023-08-24T06:10:55;13.48;;;7.68;;
79414;SDS011;68864;44.972;19.612;2023-08-24T06:13:22;12.77;;;10.30;;
79414;SDS011;68864;44.972;19.612;2023-08-24T06:15:48;15.45;;;9.73;;
79414;SDS011;68864;44.972;19.612;2023-08-24T06:18:17;12.38;;;9.00;;
79414;SDS011;68864;44.972;19.612;2023-08-24T06:20:43;16.52;;;11.32;;
79414;SDS011;68864;44.972;19.612;2023-08-24T06:23:11;12.05;;;7.07;;
79414;SDS011;68864;44.972;19.612;2023-08-24T06:25:38;10.38;;;5.68;;
79414;SDS011;68864;44.972;19.612;2023-08-24T06:28:05;12.43;;;8.55;;
79414;SDS011;68864;44.972;19.612;2023-08-24T06:30:36;17.35;;;13.52;;
79414;SDS011;68864;44.972;19.612;2023-08-24T06:33:04;13.48;;;10.18;;
79414;SDS011;68864;44.972;19.612;2023-08-24T06:35:33;17.75;;;11.32;;
79414;SDS011;68864;44.972;19.612;2023-08-24T06:38:00;15.05;;;11.10;;
79414;SDS011;68864;44.972;19.612;2023-08-24T06:40:27;12.73;;;9.18;;
79414;SDS011;68864;44.972;19.612;2023-08-24T06:42:54;12.52;;;8.90;;
79414;SDS011;68864;44.972;19.612;2023-08-24T06:45:21;10.88;;;8.38;;
79414;SDS011;68864;44.972;19.612;2023-08-24T06:47:48;8.75;;;6.80;;
79414;SDS011;68864;44.972;19.612;2023-08-24T06:50:16;9.45;;;5.72;;
79414;SDS011;68864;44.972;19.612;2023-08-24T06:52:45;11.50;;;6.75;;
79414;SDS011;68864;44.972;19.612;2023-08-24T06:55:12;11.35;;;6.85;;
79414;SDS011;68864;44.972;19.612;2023-08-24T06:57:39;8.95;;;6.53;;
79414;SDS011;68864;44.972;19.612;2023-08-24T07:00:06;10.70;;;6.55;;
79414;SDS011;68864;44.972;19.612;2023-08-24T07:02:34;9.82;;;6.18;;
79414;SDS011;68864;44.972;19.612;2023-08-24T07:05:02;7.72;;;6.82;;
79414;SDS011;68864;44.972;19.612;2023-08-24T07:07:31;7.68;;;6.18;;
79414;SDS011;68864;44.972;19.612;2023-08-24T07:09:59;11.20;;;7.07;;
79414;SDS011;68864;44.972;19.612;2023-08-24T07:12:26;16.42;;;8.57;;
79414;SDS011;68864;44.972;19.612;2023-08-24T07:14:53;14.25;;;9.98;;
79414;SDS011;68864;44.972;19.612;2023-08-24T07:17:20;10.25;;;8.02;;
79414;SDS011;68864;44.972;19.612;2023-08-24T07:19:46;8.18;;;5.90;;
79414;SDS011;68864;44.972;19.612;2023-08-24T07:22:13;7.22;;;5.03;;
79414;SDS011;68864;44.972;19.612;2023-08-24T07:24:40;8.57;;;5.20;;
79414;SDS011;68864;44.972;19.612;2023-08-24T07:27:08;7.60;;;4.32;;
79414;SDS011;68864;44.972;19.612;2023-08-24T07:29:35;8.98;;;5.30;;
79414;SDS011;68864;44.972;19.612;2023-08-24T07:32:02;9.07;;;5.22;;
79414;SDS011;68864;44.972;19.612;2023-08-24T07:34:29;22.40;;;5.43;;
79414;SDS011;68864;44.972;19.612;2023-08-24T07:36:56;8.23;;;5.40;;
79414;SDS011;68864;44.972;19.612;2023-08-24T07:39:22;9.38;;;4.90;;
79414;SDS011;68864;44.972;19.612;2023-08-24T07:41:49;8.90;;;4.55;;
79414;SDS011;68864;44.972;19.612;2023-08-24T07:44:17;10.38;;;4.85;;
79414;SDS011;68864;44.972;19.612;2023-08-24T07:46:44;11.75;;;5.10;;
79414;SDS011;68864;44.972;19.612;2023-08-24T07:49:11;7.28;;;5.22;;
79414;SDS011;68864;44.972;19.612;2023-08-24T07:51:38;10.68;;;5.95;;
79414;SDS011;68864;44.972;19.612;2023-08-24T07:54:05;10.30;;;5.93;;
79414;SDS011;68864;44.972;19.612;2023-08-24T07:56:32;9.73;;;4.85;;
79414;SDS011;68864;44.972;19.612;2023-08-24T07:58:59;11.10;;;4.78;;
79414;SDS011;68864;44.972;19.612;2023-08-24T08:01:27;6.00;;;3.45;;
79414;SDS011;68864;44.972;19.612;2023-08-24T08:03:55;7.43;;;4.53;;
79414;SDS011;68864;44.972;19.612;2023-08-24T08:06:22;8.18;;;3.95;;
79414;SDS011;68864;44.972;19.612;2023-08-24T08:08:49;7.07;;;5.18;;
79414;SDS011;68864;44.972;19.612;2023-08-24T08:11:16;16.15;;;9.27;;
79414;SDS011;68864;44.972;19.612;2023-08-24T08:13:43;21.80;;;17.50;;
79414;SDS011;68864;44.972;19.612;2023-08-24T08:16:10;8.77;;;6.47;;
79414;SDS011;68864;44.972;19.612;2023-08-24T08:18:38;10.43;;;5.32;;
79414;SDS011;68864;44.972;19.612;2023-08-24T08:21:08;9.20;;;5.82;;
79414;SDS011;68864;44.972;19.612;2023-08-24T08:23:35;9.45;;;6.18;;
79414;SDS011;68864;44.972;19.612;2023-08-24T08:26:02;11.00;;;4.70;;
79414;SDS011;68864;44.972;19.612;2023-08-24T08:28:29;7.15;;;4.78;;
79414;SDS011;68864;44.972;19.612;2023-08-24T08:30:58;7.70;;;3.28;;
79414;SDS011;68864;44.972;19.612;2023-08-24T08:33:25;10.70;;;4.57;;
79414;SDS011;68864;44.972;19.612;2023-08-24T08:35:53;7.97;;;3.67;;
79414;SDS011;68864;44.972;19.612;2023-08-24T08:38:20;11.15;;;4.13;;
79414;SDS011;68864;44.972;19.612;2023-08-24T08:40:51;9.25;;;4.95;;
79414;SDS011;68864;44.972;19.612;2023-08-24T08:43:18;9.95;;;4.55;;
79414;SDS011;68864;44.972;19.612;2023-08-24T08:45:46;16.42;;;9.30;;
79414;SDS011;68864;44.972;19.612;2023-08-24T08:48:14;11.05;;;7.90;;
79414;SDS011;68864;44.972;19.612;2023-08-24T08:50:41;10.57;;;6.65;;
79414;SDS011;68864;44.972;19.612;2023-08-24T08:53:09;8.02;;;4.90;;
79414;SDS011;68864;44.972;19.612;2023-08-24T08:55:36;7.80;;;4.75;;
79414;SDS011;68864;44.972;19.612;2023-08-24T08:58:03;10.10;;;2.92;;
79414;SDS011;68864;44.972;19.612;2023-08-24T09:00:31;6.75;;;2.83;;
79414;SDS011;68864;44.972;19.612;2023-08-24T09:02:58;6.03;;;3.95;;
79414;SDS011;68864;44.972;19.612;2023-08-24T09:05:25;9.32;;;3.90;;
79414;SDS011;68864;44.972;19.612;2023-08-24T09:07:52;7.85;;;3.45;;
79414;SDS011;68864;44.972;19.612;2023-08-24T09:10:23;8.27;;;2.50;;
79414;SDS011;68864;44.972;19.612;2023-08-24T09:12:50;4.30;;;1.95;;
79414;SDS011;68864;44.972;19.612;2023-08-24T09:15:23;7.68;;;3.22;;
79414;SDS011;68864;44.972;19.612;2023-08-24T09:17:51;6.00;;;3.00;;
79414;SDS011;68864;44.972;19.612;2023-08-24T09:20:20;5.68;;;2.33;;
79414;SDS011;68864;44.972;19.612;2023-08-24T09:22:47;5.43;;;2.70;;
79414;SDS011;68864;44.972;19.612;2023-08-24T09:25:13;4.38;;;1.95;;
79414;SDS011;68864;44.972;19.612;2023-08-24T09:27:41;4.40;;;2.53;;
79414;SDS011;68864;44.972;19.612;2023-08-24T09:30:08;11.93;;;6.15;;
79414;SDS011;68864;44.972;19.612;2023-08-24T09:32:36;14.52;;;7.88;;
79414;SDS011;68864;44.972;19.612;2023-08-24T09:35:03;8.38;;;4.72;;
79414;SDS011;68864;44.972;19.612;2023-08-24T09:37:33;6.72;;;3.25;;
79414;SDS011;68864;44.972;19.612;2023-08-24T09:40:01;7.47;;;2.47;;
79414;SDS011;68864;44.972;19.612;2023-08-24T09:42:36;6.28;;;2.58;;
79414;SDS011;68864;44.972;19.612;2023-08-24T09:45:05;5.25;;;2.15;;
79414;SDS011;68864;44.972;19.612;2023-08-24T09:47:35;5.25;;;1.63;;
79414;SDS011;68864;44.972;19.612;2023-08-24T09:50:02;3.72;;;1.70;;
79414;SDS011;68864;44.972;19.612;2023-08-24T09:52:30;5.47;;;2.50;;
79414;SDS011;68864;44.972;19.612;2023-08-24T09:54:58;4.03;;;1.42;;
79414;SDS011;68864;44.972;19.612;2023-08-24T09:57:31;4.13;;;2.50;;
79414;SDS011;68864;44.972;19.612;2023-08-24T10:00:02;9.25;;;2.00;;
79414;SDS011;68864;44.972;19.612;2023-08-24T10:02:35;4.50;;;2.13;;
79414;SDS011;68864;44.972;19.612;2023-08-24T10:05:03;5.80;;;1.25;;
79414;SDS011;68864;44.972;19.612;2023-08-24T10:07:32;5.15;;;1.92;;
79414;SDS011;68864;44.972;19.612;2023-08-24T10:10:02;7.20;;;2.13;;
79414;SDS011;68864;44.972;19.612;2023-08-24T10:12:31;6.80;;;1.85;;
79414;SDS011;68864;44.972;19.612;2023-08-24T10:15:03;4.13;;;1.80;;
79414;SDS011;68864;44.972;19.612;2023-08-24T10:17:33;6.68;;;1.88;;
79414;SDS011;68864;44.972;19.612;2023-08-24T10:20:03;4.10;;;1.52;;
79414;SDS011;68864;44.972;19.612;2023-08-24T10:22:34;4.40;;;1.52;;
79414;SDS011;68864;44.972;19.612;2023-08-24T10:25:01;4.85;;;1.33;;
79414;SDS011;68864;44.972;19.612;2023-08-24T10:27:28;6.20;;;1.75;;
79414;SDS011;68864;44.972;19.612;2023-08-24T10:29:56;6.25;;;1.70;;
79414;SDS011;68864;44.972;19.612;2023-08-24T10:32:25;4.75;;;1.20;;
79414;SDS011;68864;44.972;19.612;2023-08-24T10:34:53;3.75;;;1.35;;
79414;SDS011;68864;44.972;19.612;2023-08-24T10:37:24;5.03;;;2.20;;
79414;SDS011;68864;44.972;19.612;2023-08-24T10:39:52;3.92;;;1.67;;
79414;SDS011;68864;44.972;19.612;2023-08-24T10:42:19;5.45;;;2.13;;
79414;SDS011;68864;44.972;19.612;2023-08-24T10:44:47;4.65;;;1.25;;
79414;SDS011;68864;44.972;19.612;2023-08-24T10:47:15;5.60;;;2.38;;
79414;SDS011;68864;44.972;19.612;2023-08-24T10:49:56;9.38;;;4.18;;
79414;SDS011;68864;44.972;19.612;2023-08-24T10:52:25;7.72;;;2.53;;
79414;SDS011;68864;44.972;19.612;2023-08-24T10:54:57;8.68;;;4.35;;
79414;SDS011;68864;44.972;19.612;2023-08-24T10:57:26;5.68;;;2.28;;
79414;SDS011;68864;44.972;19.612;2023-08-24T11:00:02;3.40;;;1.65;;
79414;SDS011;68864;44.972;19.612;2023-08-24T11:02:40;4.78;;;1.85;;
79414;SDS011;68864;44.972;19.612;2023-08-24T11:05:17;4.93;;;1.95;;
79414;SDS011;68864;44.972;19.612;2023-08-24T11:07:49;4.78;;;2.05;;
79414;SDS011;68864;44.972;19.612;2023-08-24T11:10:17;5.03;;;1.23;;
79414;SDS011;68864;44.972;19.612;2023-08-24T11:15:31;4.80;;;1.42;;
79414;SDS011;68864;44.972;19.612;2023-08-24T11:18:14;4.50;;;1.33;;
79414;SDS011;68864;44.972;19.612;2023-08-24T11:20:47;4.25;;;1.77;;
79414;SDS011;68864;44.972;19.612;2023-08-24T11:23:16;5.38;;;2.28;;
79414;SDS011;68864;44.972;19.612;2023-08-24T11:25:43;4.18;;;1.25;;
79414;SDS011;68864;44.972;19.612;2023-08-24T11:28:10;5.00;;;2.65;;
79414;SDS011;68864;44.972;19.612;2023-08-24T11:30:37;6.55;;;1.83;;
79414;SDS011;68864;44.972;19.612;2023-08-24T11:33:04;4.30;;;1.42;;
79414;SDS011;68864;44.972;19.612;2023-08-24T11:35:34;6.43;;;1.40;;
79414;SDS011;68864;44.972;19.612;2023-08-24T11:38:03;5.28;;;2.58;;
79414;SDS011;68864;44.972;19.612;2023-08-24T11:40:30;4.32;;;1.63;;
79414;SDS011;68864;44.972;19.612;2023-08-24T11:42:58;4.57;;;2.10;;
79414;SDS011;68864;44.972;19.612;2023-08-24T11:45:29;7.07;;;1.40;;
79414;SDS011;68864;44.972;19.612;2023-08-24T11:47:57;6.10;;;1.95;;
79414;SDS011;68864;44.972;19.612;2023-08-24T11:50:25;4.25;;;2.35;;
79414;SDS011;68864;44.972;19.612;2023-08-24T11:52:53;4.55;;;1.58;;
79414;SDS011;68864;44.972;19.612;2023-08-24T11:55:22;5.70;;;2.30;;
79414;SDS011;68864;44.972;19.612;2023-08-24T11:57:49;6.45;;;2.13;;
79414;SDS011;68864;44.972;19.612;2023-08-24T12:00:16;5.55;;;2.78;;
79414;SDS011;68864;44.972;19.612;2023-08-24T12:02:46;4.43;;;2.20;;
79414;SDS011;68864;44.972;19.612;2023-08-24T12:05:20;5.38;;;2.38;;
79414;SDS011;68864;44.972;19.612;2023-08-24T12:07:48;5.38;;;2.75;;
79414;SDS011;68864;44.972;19.612;2023-08-24T12:10:15;4.00;;;1.30;;
79414;SDS011;68864;44.972;19.612;2023-08-24T12:12:43;15.00;;;1.85;;
79414;SDS011;68864;44.972;19.612;2023-08-24T12:15:15;4.45;;;1.55;;
79414;SDS011;68864;44.972;19.612;2023-08-24T12:17:43;5.45;;;1.95;;
79414;SDS011;68864;44.972;19.612;2023-08-24T12:20:16;5.80;;;1.67;;
79414;SDS011;68864;44.972;19.612;2023-08-24T12:22:49;6.47;;;1.75;;
79414;SDS011;68864;44.972;19.612;2023-08-24T12:25:17;5.35;;;3.00;;
79414;SDS011;68864;44.972;19.612;2023-08-24T12:27:45;6.75;;;2.17;;
79414;SDS011;68864;44.972;19.612;2023-08-24T12:30:12;5.85;;;2.13;;
79414;SDS011;68864;44.972;19.612;2023-08-24T12:32:42;4.53;;;1.98;;
79414;SDS011;68864;44.972;19.612;2023-08-24T12:35:09;5.00;;;3.13;;
79414;SDS011;68864;44.972;19.612;2023-08-24T12:37:35;5.65;;;2.45;;
79414;SDS011;68864;44.972;19.612;2023-08-24T12:40:02;4.55;;;1.55;;
79414;SDS011;68864;44.972;19.612;2023-08-24T12:42:30;7.82;;;2.78;;
79414;SDS011;68864;44.972;19.612;2023-08-24T12:44:58;8.43;;;2.33;;
79414;SDS011;68864;44.972;19.612;2023-08-24T12:47:25;5.68;;;2.00;;
79414;SDS011;68864;44.972;19.612;2023-08-24T12:49:52;5.35;;;1.88;;
79414;SDS011;68864;44.972;19.612;2023-08-24T12:52:21;7.00;;;3.13;;
79414;SDS011;68864;44.972;19.612;2023-08-24T12:54:48;6.38;;;1.67;;
79414;SDS011;68864;44.972;19.612;2023-08-24T12:57:15;5.60;;;2.17;;
79414;SDS011;68864;44.972;19.612;2023-08-24T12:59:42;7.68;;;1.98;;
79414;SDS011;68864;44.972;19.612;2023-08-24T13:02:10;5.93;;;3.47;;
79414;SDS011;68864;44.972;19.612;2023-08-24T13:04:36;5.32;;;3.17;;
79414;SDS011;68864;44.972;19.612;2023-08-24T13:07:03;9.48;;;2.38;;
79414;SDS011;68864;44.972;19.612;2023-08-24T13:09:30;7.65;;;3.63;;
79414;SDS011;68864;44.972;19.612;2023-08-24T13:11:57;8.38;;;4.45;;
79414;SDS011;68864;44.972;19.612;2023-08-24T13:14:24;6.60;;;1.95;;
79414;SDS011;68864;44.972;19.612;2023-08-24T13:16:50;4.75;;;1.90;;
79414;SDS011;68864;44.972;19.612;2023-08-24T13:19:18;6.22;;;2.17;;
79414;SDS011;68864;44.972;19.612;2023-08-24T13:21:45;4.82;;;2.38;;
79414;SDS011;68864;44.972;19.612;2023-08-24T13:24:12;14.57;;;3.60;;
79414;SDS011;68864;44.972;19.612;2023-08-24T13:26:39;5.35;;;2.17;;
79414;SDS011;68864;44.972;19.612;2023-08-24T13:29:05;4.65;;;2.65;;
79414;SDS011;68864;44.972;19.612;2023-08-24T13:31:32;4.57;;;2.47;;
79414;SDS011;68864;44.972;19.612;2023-08-24T13:34:00;9.90;;;2.60;;
79414;SDS011;68864;44.972;19.612;2023-08-24T13:36:31;7.55;;;2.83;;
79414;SDS011;68864;44.972;19.612;2023-08-24T13:38:57;6.03;;;2.33;;
79414;SDS011;68864;44.972;19.612;2023-08-24T13:41:24;4.47;;;2.20;;
79414;SDS011;68864;44.972;19.612;2023-08-24T13:43:51;7.30;;;2.35;;
79414;SDS011;68864;44.972;19.612;2023-08-24T13:46:18;10.10;;;2.13;;
79414;SDS011;68864;44.972;19.612;2023-08-24T13:48:44;8.95;;;3.33;;
79414;SDS011;68864;44.972;19.612;2023-08-24T13:51:11;7.13;;;3.47;;
79414;SDS011;68864;44.972;19.612;2023-08-24T13:53:39;5.80;;;2.60;;
79414;SDS011;68864;44.972;19.612;2023-08-24T13:56:06;4.60;;;2.47;;
79414;SDS011;68864;44.972;19.612;2023-08-24T13:58:33;5.32;;;2.05;;
79414;SDS011;68864;44.972;19.612;2023-08-24T14:00:59;6.88;;;1.65;;
79414;SDS011;68864;44.972;19.612;2023-08-24T14:03:28;8.15;;;2.53;;
79414;SDS011;68864;44.972;19.612;2023-08-24T14:05:55;5.90;;;2.75;;
79414;SDS011;68864;44.972;19.612;2023-08-24T14:08:22;7.28;;;2.28;;
79414;SDS011;68864;44.972;19.612;2023-08-24T14:10:51;6.93;;;2.78;;
79414;SDS011;68864;44.972;19.612;2023-08-24T14:13:18;11.75;;;2.90;;
79414;SDS011;68864;44.972;19.612;2023-08-24T14:15:47;6.10;;;3.03;;
79414;SDS011;68864;44.972;19.612;2023-08-24T14:18:14;7.68;;;3.50;;
79414;SDS011;68864;44.972;19.612;2023-08-24T14:20:42;5.90;;;3.00;;
79414;SDS011;68864;44.972;19.612;2023-08-24T14:23:08;7.88;;;3.40;;
79414;SDS011;68864;44.972;19.612;2023-08-24T14:25:35;7.28;;;2.83;;
79414;SDS011;68864;44.972;19.612;2023-08-24T14:28:04;4.55;;;2.63;;
79414;SDS011;68864;44.972;19.612;2023-08-24T14:30:30;5.93;;;2.60;;
79414;SDS011;68864;44.972;19.612;2023-08-24T14:32:57;5.60;;;1.75;;
79414;SDS011;68864;44.972;19.612;2023-08-24T14:35:24;5.80;;;2.33;;
79414;SDS011;68864;44.972;19.612;2023-08-24T14:37:51;6.30;;;2.67;;
79414;SDS011;68864;44.972;19.612;2023-08-24T14:40:17;7.50;;;2.28;;
79414;SDS011;68864;44.972;19.612;2023-08-24T14:42:45;5.45;;;2.88;;
79414;SDS011;68864;44.972;19.612;2023-08-24T14:45:15;8.02;;;2.33;;
79414;SDS011;68864;44.972;19.612;2023-08-24T14:47:42;6.00;;;2.72;;
79414;SDS011;68864;44.972;19.612;2023-08-24T14:50:09;5.32;;;2.13;;
79414;SDS011;68864;44.972;19.612;2023-08-24T14:52:36;6.95;;;3.03;;
79414;SDS011;68864;44.972;19.612;2023-08-24T14:55:04;9.57;;;2.33;;
79414;SDS011;68864;44.972;19.612;2023-08-24T14:57:33;7.82;;;2.78;;
79414;SDS011;68864;44.972;19.612;2023-08-24T14:59:59;7.72;;;2.80;;
79414;SDS011;68864;44.972;19.612;2023-08-24T15:02:28;7.63;;;2.45;;
79414;SDS011;68864;44.972;19.612;2023-08-24T15:04:54;6.15;;;2.53;;
79414;SDS011;68864;44.972;19.612;2023-08-24T15:07:21;9.30;;;2.90;;
79414;SDS011;68864;44.972;19.612;2023-08-24T15:09:48;6.22;;;2.75;;
79414;SDS011;68864;44.972;19.612;2023-08-24T15:12:16;3.75;;;2.25;;
79414;SDS011;68864;44.972;19.612;2023-08-24T15:14:56;4.95;;;2.35;;
79414;SDS011;68864;44.972;19.612;2023-08-24T15:17:23;7.03;;;2.92;;
79414;SDS011;68864;44.972;19.612;2023-08-24T15:19:51;8.15;;;2.05;;
79414;SDS011;68864;44.972;19.612;2023-08-24T15:22:18;7.03;;;1.80;;
79414;SDS011;68864;44.972;19.612;2023-08-24T15:24:45;9.35;;;3.33;;
79414;SDS011;68864;44.972;19.612;2023-08-24T15:27:12;6.43;;;2.63;;
79414;SDS011;68864;44.972;19.612;2023-08-24T15:29:38;5.78;;;2.05;;
79414;SDS011;68864;44.972;19.612;2023-08-24T15:32:05;5.32;;;2.75;;
79414;SDS011;68864;44.972;19.612;2023-08-24T15:34:32;6.80;;;2.45;;
79414;SDS011;68864;44.972;19.612;2023-08-24T15:37:01;4.47;;;1.40;;
79414;SDS011;68864;44.972;19.612;2023-08-24T15:39:28;6.43;;;2.65;;
79414;SDS011;68864;44.972;19.612;2023-08-24T15:41:54;5.68;;;2.92;;
79414;SDS011;68864;44.972;19.612;2023-08-24T15:44:21;8.02;;;1.92;;
79414;SDS011;68864;44.972;19.612;2023-08-24T15:46:48;6.10;;;2.65;;